sensor_id;sensor_type;location;lat;lon;timestamp;P1;durP1;ratioP1;P2;durP2;ratioP2
44139;SDS011;29803;51.048;4.686;2023-03-31T00:02:04;19.65;;;2.53;;
44139;SDS011;29803;51.048;4.686;2023-03-31T00:04:42;16.75;;;2.30;;
44139;SDS011;29803;51.048;4.686;2023-03-31T00:07:15;12.40;;;2.42;;
44139;SDS011;29803;51.048;4.686;2023-03-31T00:09:45;16.27;;;2.50;;
44139;SDS011;29803;51.048;4.686;2023-03-31T00:12:16;15.90;;;2.83;;
44139;SDS011;29803;51.048;4.686;2023-03-31T00:14:46;27.98;;;2.53;;
44139;SDS011;29803;51.048;4.686;2023-03-31T00:17:17;16.35;;;3.00;;
44139;SDS011;29803;51.048;4.686;2023-03-31T00:19:47;14.80;;;2.80;;
44139;SDS011;29803;51.048;4.686;2023-03-31T00:22:18;13.63;;;2.38;;
44139;SDS011;29803;51.048;4.686;2023-03-31T00:24:52;15.98;;;2.22;;
44139;SDS011;29803;51.048;4.686;2023-03-31T00:27:22;29.48;;;5.53;;
44139;SDS011;29803;51.048;4.686;2023-03-31T00:29:53;16.75;;;2.28;;
44139;SDS011;29803;51.048;4.686;2023-03-31T00:32:24;17.42;;;2.45;;
44139;SDS011;29803;51.048;4.686;2023-03-31T00:34:55;14.73;;;2.65;;
44139;SDS011;29803;51.048;4.686;2023-03-31T00:37:25;20.20;;;3.03;;
44139;SDS011;29803;51.048;4.686;2023-03-31T00:39:56;16.17;;;3.25;;
44139;SDS011;29803;51.048;4.686;2023-03-31T00:42:26;15.25;;;2.63;;
44139;SDS011;29803;51.048;4.686;2023-03-31T00:47:54;19.05;;;3.40;;
44139;SDS011;29803;51.048;4.686;2023-03-31T00:50:26;22.42;;;4.35;;
44139;SDS011;29803;51.048;4.686;2023-03-31T00:53:03;15.18;;;3.05;;
44139;SDS011;29803;51.048;4.686;2023-03-31T00:55:41;24.42;;;3.10;;
44139;SDS011;29803;51.048;4.686;2023-03-31T00:58:15;20.60;;;2.90;;
44139;SDS011;29803;51.048;4.686;2023-03-31T01:00:49;17.52;;;3.25;;
44139;SDS011;29803;51.048;4.686;2023-03-31T01:03:22;20.80;;;3.47;;
44139;SDS011;29803;51.048;4.686;2023-03-31T01:05:55;19.00;;;2.70;;
44139;SDS011;29803;51.048;4.686;2023-03-31T01:08:28;10.00;;;2.85;;
44139;SDS011;29803;51.048;4.686;2023-03-31T01:11:00;21.70;;;3.85;;
44139;SDS011;29803;51.048;4.686;2023-03-31T01:13:34;18.65;;;4.03;;
44139;SDS011;29803;51.048;4.686;2023-03-31T01:16:07;22.60;;;2.60;;
44139;SDS011;29803;51.048;4.686;2023-03-31T01:18:38;17.05;;;2.95;;
44139;SDS011;29803;51.048;4.686;2023-03-31T01:36:40;24.77;;;3.80;;
44139;SDS011;29803;51.048;4.686;2023-03-31T01:50:40;23.48;;;3.00;;
44139;SDS011;29803;51.048;4.686;2023-03-31T01:58:41;18.73;;;3.13;;
44139;SDS011;29803;51.048;4.686;2023-03-31T02:04:33;17.25;;;2.55;;
44139;SDS011;29803;51.048;4.686;2023-03-31T02:07:15;15.20;;;2.63;;
44139;SDS011;29803;51.048;4.686;2023-03-31T02:09:56;14.27;;;3.03;;
44139;SDS011;29803;51.048;4.686;2023-03-31T02:12:30;21.58;;;3.22;;
44139;SDS011;29803;51.048;4.686;2023-03-31T02:15:04;12.82;;;2.78;;
44139;SDS011;29803;51.048;4.686;2023-03-31T02:17:39;23.45;;;2.78;;
44139;SDS011;29803;51.048;4.686;2023-03-31T02:20:15;18.75;;;2.97;;
44139;SDS011;29803;51.048;4.686;2023-03-31T02:22:49;17.02;;;2.30;;
44139;SDS011;29803;51.048;4.686;2023-03-31T02:25:29;19.52;;;2.63;;
44139;SDS011;29803;51.048;4.686;2023-03-31T02:28:07;14.48;;;2.75;;
44139;SDS011;29803;51.048;4.686;2023-03-31T02:33:34;16.23;;;2.63;;
44139;SDS011;29803;51.048;4.686;2023-03-31T02:36:04;19.00;;;2.50;;
44139;SDS011;29803;51.048;4.686;2023-03-31T02:38:37;10.45;;;2.25;;
44139;SDS011;29803;51.048;4.686;2023-03-31T02:41:12;16.52;;;2.92;;
44139;SDS011;29803;51.048;4.686;2023-03-31T02:43:42;19.83;;;3.45;;
44139;SDS011;29803;51.048;4.686;2023-03-31T02:46:13;12.57;;;2.70;;
44139;SDS011;29803;51.048;4.686;2023-03-31T02:48:45;11.70;;;2.50;;
44139;SDS011;29803;51.048;4.686;2023-03-31T02:51:25;14.32;;;2.30;;
44139;SDS011;29803;51.048;4.686;2023-03-31T03:00:06;14.88;;;2.40;;
44139;SDS011;29803;51.048;4.686;2023-03-31T03:05:44;18.88;;;2.88;;
44139;SDS011;29803;51.048;4.686;2023-03-31T03:11:38;11.63;;;2.90;;
44139;SDS011;29803;51.048;4.686;2023-03-31T03:14:16;13.98;;;2.40;;
44139;SDS011;29803;51.048;4.686;2023-03-31T03:16:48;12.43;;;2.17;;
44139;SDS011;29803;51.048;4.686;2023-03-31T03:19:27;16.55;;;2.72;;
44139;SDS011;29803;51.048;4.686;2023-03-31T03:21:57;13.00;;;2.40;;
44139;SDS011;29803;51.048;4.686;2023-03-31T03:24:28;13.35;;;2.22;;
44139;SDS011;29803;51.048;4.686;2023-03-31T03:26:58;17.92;;;3.17;;
44139;SDS011;29803;51.048;4.686;2023-03-31T03:29:29;15.82;;;1.80;;
44139;SDS011;29803;51.048;4.686;2023-03-31T03:32:00;21.40;;;2.67;;
44139;SDS011;29803;51.048;4.686;2023-03-31T03:34:30;11.68;;;2.67;;
44139;SDS011;29803;51.048;4.686;2023-03-31T03:37:01;11.95;;;2.22;;
44139;SDS011;29803;51.048;4.686;2023-03-31T03:39:31;9.68;;;1.92;;
44139;SDS011;29803;51.048;4.686;2023-03-31T03:42:02;11.40;;;2.00;;
44139;SDS011;29803;51.048;4.686;2023-03-31T03:44:33;12.23;;;2.13;;
44139;SDS011;29803;51.048;4.686;2023-03-31T03:47:03;6.00;;;1.95;;
44139;SDS011;29803;51.048;4.686;2023-03-31T03:49:34;8.30;;;1.98;;
44139;SDS011;29803;51.048;4.686;2023-03-31T03:52:04;14.65;;;3.22;;
44139;SDS011;29803;51.048;4.686;2023-03-31T03:54:35;10.80;;;2.38;;
44139;SDS011;29803;51.048;4.686;2023-03-31T03:57:05;10.68;;;2.42;;
44139;SDS011;29803;51.048;4.686;2023-03-31T03:59:36;15.50;;;2.22;;
44139;SDS011;29803;51.048;4.686;2023-03-31T04:02:06;17.52;;;2.33;;
44139;SDS011;29803;51.048;4.686;2023-03-31T04:04:37;11.73;;;2.00;;
44139;SDS011;29803;51.048;4.686;2023-03-31T04:07:07;14.13;;;1.70;;
44139;SDS011;29803;51.048;4.686;2023-03-31T04:09:38;12.90;;;2.10;;
44139;SDS011;29803;51.048;4.686;2023-03-31T04:12:08;15.07;;;3.55;;
44139;SDS011;29803;51.048;4.686;2023-03-31T04:14:39;18.17;;;2.33;;
44139;SDS011;29803;51.048;4.686;2023-03-31T04:17:10;17.65;;;2.65;;
44139;SDS011;29803;51.048;4.686;2023-03-31T04:19:44;21.97;;;2.40;;
44139;SDS011;29803;51.048;4.686;2023-03-31T04:22:19;24.30;;;2.70;;
44139;SDS011;29803;51.048;4.686;2023-03-31T04:24:50;17.60;;;2.60;;
44139;SDS011;29803;51.048;4.686;2023-03-31T04:27:21;8.98;;;2.15;;
44139;SDS011;29803;51.048;4.686;2023-03-31T04:29:56;11.43;;;2.07;;
44139;SDS011;29803;51.048;4.686;2023-03-31T04:32:26;6.78;;;2.30;;
44139;SDS011;29803;51.048;4.686;2023-03-31T04:34:57;7.47;;;1.15;;
44139;SDS011;29803;51.048;4.686;2023-03-31T04:37:31;9.38;;;1.83;;
44139;SDS011;29803;51.048;4.686;2023-03-31T04:40:03;6.10;;;1.35;;
44139;SDS011;29803;51.048;4.686;2023-03-31T04:42:37;8.55;;;1.50;;
44139;SDS011;29803;51.048;4.686;2023-03-31T04:45:07;9.10;;;1.75;;
44139;SDS011;29803;51.048;4.686;2023-03-31T04:47:38;4.72;;;1.98;;
44139;SDS011;29803;51.048;4.686;2023-03-31T04:50:09;8.02;;;1.50;;
44139;SDS011;29803;51.048;4.686;2023-03-31T04:52:40;9.20;;;1.50;;
44139;SDS011;29803;51.048;4.686;2023-03-31T04:55:10;6.95;;;1.10;;
44139;SDS011;29803;51.048;4.686;2023-03-31T04:57:41;5.53;;;1.20;;
44139;SDS011;29803;51.048;4.686;2023-03-31T05:00:11;2.53;;;1.00;;
44139;SDS011;29803;51.048;4.686;2023-03-31T05:02:43;5.60;;;2.22;;
44139;SDS011;29803;51.048;4.686;2023-03-31T05:05:13;6.70;;;1.92;;
44139;SDS011;29803;51.048;4.686;2023-03-31T05:07:44;7.43;;;1.00;;
44139;SDS011;29803;51.048;4.686;2023-03-31T05:10:15;6.97;;;1.30;;
44139;SDS011;29803;51.048;4.686;2023-03-31T05:12:45;4.47;;;1.30;;
44139;SDS011;29803;51.048;4.686;2023-03-31T05:15:16;6.60;;;1.35;;
44139;SDS011;29803;51.048;4.686;2023-03-31T05:17:47;8.27;;;1.70;;
44139;SDS011;29803;51.048;4.686;2023-03-31T05:20:18;9.60;;;1.70;;
44139;SDS011;29803;51.048;4.686;2023-03-31T05:22:49;6.05;;;1.52;;
44139;SDS011;29803;51.048;4.686;2023-03-31T05:25:20;9.77;;;2.00;;
44139;SDS011;29803;51.048;4.686;2023-03-31T05:27:51;11.73;;;1.80;;
44139;SDS011;29803;51.048;4.686;2023-03-31T05:30:22;14.40;;;2.53;;
44139;SDS011;29803;51.048;4.686;2023-03-31T05:32:55;16.60;;;2.47;;
44139;SDS011;29803;51.048;4.686;2023-03-31T05:35:26;17.65;;;2.67;;
44139;SDS011;29803;51.048;4.686;2023-03-31T05:37:56;14.13;;;3.17;;
44139;SDS011;29803;51.048;4.686;2023-03-31T05:40:27;19.45;;;3.15;;
44139;SDS011;29803;51.048;4.686;2023-03-31T05:42:57;22.25;;;3.20;;
44139;SDS011;29803;51.048;4.686;2023-03-31T05:45:28;21.55;;;3.17;;
44139;SDS011;29803;51.048;4.686;2023-03-31T05:47:58;18.20;;;2.88;;
44139;SDS011;29803;51.048;4.686;2023-03-31T05:50:29;22.52;;;3.60;;
44139;SDS011;29803;51.048;4.686;2023-03-31T05:53:00;20.02;;;4.13;;
44139;SDS011;29803;51.048;4.686;2023-03-31T05:55:30;22.20;;;4.85;;
44139;SDS011;29803;51.048;4.686;2023-03-31T05:58:00;15.20;;;3.00;;
44139;SDS011;29803;51.048;4.686;2023-03-31T06:00:31;20.92;;;3.40;;
44139;SDS011;29803;51.048;4.686;2023-03-31T06:03:02;18.02;;;3.03;;
44139;SDS011;29803;51.048;4.686;2023-03-31T06:05:33;22.17;;;3.22;;
44139;SDS011;29803;51.048;4.686;2023-03-31T06:08:04;13.38;;;3.47;;
44139;SDS011;29803;51.048;4.686;2023-03-31T06:10:36;20.25;;;3.20;;
44139;SDS011;29803;51.048;4.686;2023-03-31T06:13:08;22.75;;;3.20;;
44139;SDS011;29803;51.048;4.686;2023-03-31T06:15:39;20.63;;;3.58;;
44139;SDS011;29803;51.048;4.686;2023-03-31T06:18:11;16.95;;;3.58;;
44139;SDS011;29803;51.048;4.686;2023-03-31T06:20:41;16.65;;;3.65;;
44139;SDS011;29803;51.048;4.686;2023-03-31T06:23:12;24.48;;;2.92;;
44139;SDS011;29803;51.048;4.686;2023-03-31T06:25:42;23.80;;;3.55;;
44139;SDS011;29803;51.048;4.686;2023-03-31T06:28:13;18.10;;;3.03;;
44139;SDS011;29803;51.048;4.686;2023-03-31T06:30:44;14.38;;;2.47;;
44139;SDS011;29803;51.048;4.686;2023-03-31T06:33:14;25.10;;;4.00;;
44139;SDS011;29803;51.048;4.686;2023-03-31T06:35:45;19.17;;;3.13;;
44139;SDS011;29803;51.048;4.686;2023-03-31T06:38:16;19.38;;;3.75;;
44139;SDS011;29803;51.048;4.686;2023-03-31T06:40:46;22.38;;;3.38;;
44139;SDS011;29803;51.048;4.686;2023-03-31T06:43:17;25.88;;;3.22;;
44139;SDS011;29803;51.048;4.686;2023-03-31T06:45:47;12.02;;;3.13;;
44139;SDS011;29803;51.048;4.686;2023-03-31T06:48:18;15.35;;;3.40;;
44139;SDS011;29803;51.048;4.686;2023-03-31T06:50:49;20.17;;;2.88;;
44139;SDS011;29803;51.048;4.686;2023-03-31T06:53:20;21.88;;;3.38;;
44139;SDS011;29803;51.048;4.686;2023-03-31T06:55:51;22.35;;;2.97;;
44139;SDS011;29803;51.048;4.686;2023-03-31T06:58:21;24.52;;;3.85;;
44139;SDS011;29803;51.048;4.686;2023-03-31T07:00:52;15.88;;;3.03;;
44139;SDS011;29803;51.048;4.686;2023-03-31T07:03:23;14.93;;;3.22;;
44139;SDS011;29803;51.048;4.686;2023-03-31T07:05:54;20.02;;;3.10;;
44139;SDS011;29803;51.048;4.686;2023-03-31T07:08:25;20.88;;;3.75;;
44139;SDS011;29803;51.048;4.686;2023-03-31T07:10:56;21.63;;;3.30;;
44139;SDS011;29803;51.048;4.686;2023-03-31T07:13:28;28.70;;;3.97;;
44139;SDS011;29803;51.048;4.686;2023-03-31T07:15:59;19.70;;;4.13;;
44139;SDS011;29803;51.048;4.686;2023-03-31T07:18:29;21.80;;;3.20;;
44139;SDS011;29803;51.048;4.686;2023-03-31T07:21:01;27.70;;;4.63;;
44139;SDS011;29803;51.048;4.686;2023-03-31T07:23:32;20.55;;;3.80;;
44139;SDS011;29803;51.048;4.686;2023-03-31T07:26:04;18.80;;;3.47;;
44139;SDS011;29803;51.048;4.686;2023-03-31T07:28:35;24.27;;;4.30;;
44139;SDS011;29803;51.048;4.686;2023-03-31T07:33:55;21.23;;;3.35;;
44139;SDS011;29803;51.048;4.686;2023-03-31T07:36:25;22.92;;;3.17;;
44139;SDS011;29803;51.048;4.686;2023-03-31T07:38:56;22.73;;;4.13;;
44139;SDS011;29803;51.048;4.686;2023-03-31T07:41:26;23.77;;;3.50;;
44139;SDS011;29803;51.048;4.686;2023-03-31T07:43:57;21.05;;;4.65;;
44139;SDS011;29803;51.048;4.686;2023-03-31T07:46:28;25.73;;;3.30;;
44139;SDS011;29803;51.048;4.686;2023-03-31T07:48:58;20.25;;;3.40;;
44139;SDS011;29803;51.048;4.686;2023-03-31T07:51:31;22.13;;;3.40;;
44139;SDS011;29803;51.048;4.686;2023-03-31T07:54:02;18.25;;;3.97;;
44139;SDS011;29803;51.048;4.686;2023-03-31T07:56:32;20.48;;;3.47;;
44139;SDS011;29803;51.048;4.686;2023-03-31T07:59:03;18.33;;;3.33;;
44139;SDS011;29803;51.048;4.686;2023-03-31T08:01:34;17.65;;;4.28;;
44139;SDS011;29803;51.048;4.686;2023-03-31T08:04:05;22.83;;;4.78;;
44139;SDS011;29803;51.048;4.686;2023-03-31T08:06:36;19.52;;;3.47;;
44139;SDS011;29803;51.048;4.686;2023-03-31T08:09:07;18.52;;;3.42;;
44139;SDS011;29803;51.048;4.686;2023-03-31T08:11:38;28.75;;;4.00;;
44139;SDS011;29803;51.048;4.686;2023-03-31T08:14:08;19.00;;;3.45;;
44139;SDS011;29803;51.048;4.686;2023-03-31T08:16:39;22.15;;;3.08;;
44139;SDS011;29803;51.048;4.686;2023-03-31T08:19:10;22.10;;;3.88;;
44139;SDS011;29803;51.048;4.686;2023-03-31T08:21:40;19.23;;;3.78;;
44139;SDS011;29803;51.048;4.686;2023-03-31T08:24:11;22.58;;;3.45;;
44139;SDS011;29803;51.048;4.686;2023-03-31T08:26:41;21.75;;;4.05;;
44139;SDS011;29803;51.048;4.686;2023-03-31T08:29:12;23.13;;;3.83;;
44139;SDS011;29803;51.048;4.686;2023-03-31T08:31:43;25.00;;;3.83;;
44139;SDS011;29803;51.048;4.686;2023-03-31T08:34:13;29.00;;;3.85;;
44139;SDS011;29803;51.048;4.686;2023-03-31T08:36:44;27.73;;;4.30;;
44139;SDS011;29803;51.048;4.686;2023-03-31T08:39:15;20.15;;;3.42;;
44139;SDS011;29803;51.048;4.686;2023-03-31T08:41:50;21.30;;;3.13;;
44139;SDS011;29803;51.048;4.686;2023-03-31T08:47:19;17.20;;;3.25;;
44139;SDS011;29803;51.048;4.686;2023-03-31T08:52:29;18.67;;;3.83;;
44139;SDS011;29803;51.048;4.686;2023-03-31T08:55:06;21.40;;;3.45;;
44139;SDS011;29803;51.048;4.686;2023-03-31T08:57:46;19.58;;;3.42;;
44139;SDS011;29803;51.048;4.686;2023-03-31T09:00:23;19.65;;;3.45;;
44139;SDS011;29803;51.048;4.686;2023-03-31T09:05:48;24.50;;;3.30;;
44139;SDS011;29803;51.048;4.686;2023-03-31T09:11:19;22.85;;;3.30;;
44139;SDS011;29803;51.048;4.686;2023-03-31T09:13:55;18.40;;;2.75;;
44139;SDS011;29803;51.048;4.686;2023-03-31T09:22:30;14.63;;;2.70;;
44139;SDS011;29803;51.048;4.686;2023-03-31T09:25:25;25.05;;;4.07;;
44139;SDS011;29803;51.048;4.686;2023-03-31T09:27:56;17.02;;;2.67;;
44139;SDS011;29803;51.048;4.686;2023-03-31T09:30:29;15.35;;;2.90;;
44139;SDS011;29803;51.048;4.686;2023-03-31T09:39:00;20.73;;;3.33;;
44139;SDS011;29803;51.048;4.686;2023-03-31T09:41:30;20.75;;;3.55;;
44139;SDS011;29803;51.048;4.686;2023-03-31T09:44:01;18.25;;;3.65;;
44139;SDS011;29803;51.048;4.686;2023-03-31T09:46:33;20.88;;;3.35;;
44139;SDS011;29803;51.048;4.686;2023-03-31T09:49:09;23.70;;;5.35;;
44139;SDS011;29803;51.048;4.686;2023-03-31T09:51:44;23.95;;;3.67;;
44139;SDS011;29803;51.048;4.686;2023-03-31T09:57:11;19.80;;;3.95;;
44139;SDS011;29803;51.048;4.686;2023-03-31T09:59:45;22.60;;;3.70;;
44139;SDS011;29803;51.048;4.686;2023-03-31T10:10:47;25.73;;;4.10;;
44139;SDS011;29803;51.048;4.686;2023-03-31T10:13:22;25.40;;;4.40;;
44139;SDS011;29803;51.048;4.686;2023-03-31T10:16:04;25.15;;;4.18;;
44139;SDS011;29803;51.048;4.686;2023-03-31T10:18:51;25.05;;;3.47;;
44139;SDS011;29803;51.048;4.686;2023-03-31T10:24:08;18.70;;;3.50;;
44139;SDS011;29803;51.048;4.686;2023-03-31T10:26:39;25.80;;;3.45;;
44139;SDS011;29803;51.048;4.686;2023-03-31T10:29:11;19.90;;;3.78;;
44139;SDS011;29803;51.048;4.686;2023-03-31T10:31:45;20.90;;;3.97;;
44139;SDS011;29803;51.048;4.686;2023-03-31T10:34:16;25.63;;;4.13;;
44139;SDS011;29803;51.048;4.686;2023-03-31T10:36:48;27.42;;;5.00;;
44139;SDS011;29803;51.048;4.686;2023-03-31T10:39:21;26.23;;;4.22;;
44139;SDS011;29803;51.048;4.686;2023-03-31T10:41:58;24.02;;;4.38;;
44139;SDS011;29803;51.048;4.686;2023-03-31T10:44:30;28.73;;;3.88;;
44139;SDS011;29803;51.048;4.686;2023-03-31T10:47:05;19.25;;;3.50;;
44139;SDS011;29803;51.048;4.686;2023-03-31T10:49:55;19.13;;;3.80;;
44139;SDS011;29803;51.048;4.686;2023-03-31T10:52:26;30.15;;;3.90;;
44139;SDS011;29803;51.048;4.686;2023-03-31T10:54:57;23.58;;;3.70;;
44139;SDS011;29803;51.048;4.686;2023-03-31T11:06:09;22.58;;;4.00;;
44139;SDS011;29803;51.048;4.686;2023-03-31T11:11:52;21.85;;;3.10;;
44139;SDS011;29803;51.048;4.686;2023-03-31T11:17:40;19.30;;;3.75;;
44139;SDS011;29803;51.048;4.686;2023-03-31T11:29:18;15.60;;;3.10;;
44139;SDS011;29803;51.048;4.686;2023-03-31T11:32:10;28.80;;;3.75;;
44139;SDS011;29803;51.048;4.686;2023-03-31T11:35:11;21.67;;;3.60;;
44139;SDS011;29803;51.048;4.686;2023-03-31T11:43:39;18.73;;;3.15;;
44139;SDS011;29803;51.048;4.686;2023-03-31T11:49:05;18.25;;;3.42;;
44139;SDS011;29803;51.048;4.686;2023-03-31T11:51:47;20.30;;;3.33;;
44139;SDS011;29803;51.048;4.686;2023-03-31T11:54:27;17.27;;;2.85;;
44139;SDS011;29803;51.048;4.686;2023-03-31T11:57:06;17.60;;;3.60;;
44139;SDS011;29803;51.048;4.686;2023-03-31T11:59:42;12.10;;;2.63;;
44139;SDS011;29803;51.048;4.686;2023-03-31T12:04:49;12.45;;;2.72;;
44139;SDS011;29803;51.048;4.686;2023-03-31T12:07:28;12.82;;;2.78;;
44139;SDS011;29803;51.048;4.686;2023-03-31T12:12:49;17.27;;;3.05;;
44139;SDS011;29803;51.048;4.686;2023-03-31T12:15:38;14.15;;;3.30;;
44139;SDS011;29803;51.048;4.686;2023-03-31T12:18:14;19.30;;;2.67;;
44139;SDS011;29803;51.048;4.686;2023-03-31T12:20:51;22.27;;;3.00;;
44139;SDS011;29803;51.048;4.686;2023-03-31T12:23:26;17.50;;;2.72;;
44139;SDS011;29803;51.048;4.686;2023-03-31T12:29:04;16.65;;;2.35;;
44139;SDS011;29803;51.048;4.686;2023-03-31T12:31:44;15.38;;;2.42;;
44139;SDS011;29803;51.048;4.686;2023-03-31T12:34:16;20.60;;;4.13;;
44139;SDS011;29803;51.048;4.686;2023-03-31T12:36:53;26.30;;;2.72;;
44139;SDS011;29803;51.048;4.686;2023-03-31T12:45:47;17.60;;;3.30;;
44139;SDS011;29803;51.048;4.686;2023-03-31T12:59:44;10.73;;;2.20;;
44139;SDS011;29803;51.048;4.686;2023-03-31T13:02:19;8.20;;;1.80;;
44139;SDS011;29803;51.048;4.686;2023-03-31T13:04:52;16.55;;;7.68;;
44139;SDS011;29803;51.048;4.686;2023-03-31T13:09:56;6.63;;;1.67;;
44139;SDS011;29803;51.048;4.686;2023-03-31T13:12:27;7.38;;;1.63;;
44139;SDS011;29803;51.048;4.686;2023-03-31T13:15:02;19.67;;;10.60;;
44139;SDS011;29803;51.048;4.686;2023-03-31T13:17:34;9.48;;;2.95;;
44139;SDS011;29803;51.048;4.686;2023-03-31T13:23:14;7.07;;;1.27;;
44139;SDS011;29803;51.048;4.686;2023-03-31T13:25:49;9.35;;;2.13;;
44139;SDS011;29803;51.048;4.686;2023-03-31T13:30:53;2.83;;;0.95;;
44139;SDS011;29803;51.048;4.686;2023-03-31T13:45:53;2.20;;;0.60;;
44139;SDS011;29803;51.048;4.686;2023-03-31T14:00:55;4.18;;;0.70;;
44139;SDS011;29803;51.048;4.686;2023-03-31T14:06:37;2.45;;;0.70;;
44139;SDS011;29803;51.048;4.686;2023-03-31T14:09:19;2.33;;;0.50;;
44139;SDS011;29803;51.048;4.686;2023-03-31T14:11:51;1.35;;;0.60;;
44139;SDS011;29803;51.048;4.686;2023-03-31T14:14:23;4.95;;;0.57;;
44139;SDS011;29803;51.048;4.686;2023-03-31T14:17:07;1.15;;;0.40;;
44139;SDS011;29803;51.048;4.686;2023-03-31T14:36:59;2.40;;;0.50;;
44139;SDS011;29803;51.048;4.686;2023-03-31T14:39:34;4.18;;;0.40;;
44139;SDS011;29803;51.048;4.686;2023-03-31T14:42:10;1.92;;;0.50;;
44139;SDS011;29803;51.048;4.686;2023-03-31T14:44:45;2.15;;;0.50;;
44139;SDS011;29803;51.048;4.686;2023-03-31T14:50:07;1.15;;;0.45;;
44139;SDS011;29803;51.048;4.686;2023-03-31T14:55:31;3.28;;;0.52;;
44139;SDS011;29803;51.048;4.686;2023-03-31T14:58:03;18.55;;;6.60;;
44139;SDS011;29803;51.048;4.686;2023-03-31T15:00:34;45.10;;;15.65;;
44139;SDS011;29803;51.048;4.686;2023-03-31T15:03:10;4.18;;;2.65;;
44139;SDS011;29803;51.048;4.686;2023-03-31T15:05:44;2.72;;;1.38;;
44139;SDS011;29803;51.048;4.686;2023-03-31T15:08:16;2.15;;;0.60;;
44139;SDS011;29803;51.048;4.686;2023-03-31T15:10:54;4.10;;;0.50;;
44139;SDS011;29803;51.048;4.686;2023-03-31T15:13:31;1.92;;;0.40;;
44139;SDS011;29803;51.048;4.686;2023-03-31T15:19:12;2.00;;;0.85;;
44139;SDS011;29803;51.048;4.686;2023-03-31T15:21:45;3.42;;;0.40;;
44139;SDS011;29803;51.048;4.686;2023-03-31T15:24:23;3.67;;;0.60;;
44139;SDS011;29803;51.048;4.686;2023-03-31T15:27:06;2.88;;;0.90;;
44139;SDS011;29803;51.048;4.686;2023-03-31T15:29:44;3.90;;;0.70;;
44139;SDS011;29803;51.048;4.686;2023-03-31T15:35:17;7.63;;;0.60;;
44139;SDS011;29803;51.048;4.686;2023-03-31T15:40:36;3.15;;;0.98;;
44139;SDS011;29803;51.048;4.686;2023-03-31T15:51:24;4.60;;;1.58;;
44139;SDS011;29803;51.048;4.686;2023-03-31T15:54:00;7.38;;;1.40;;
44139;SDS011;29803;51.048;4.686;2023-03-31T16:02:30;8.45;;;1.10;;
44139;SDS011;29803;51.048;4.686;2023-03-31T16:05:23;7.53;;;1.20;;
44139;SDS011;29803;51.048;4.686;2023-03-31T16:16:59;5.68;;;1.08;;
44139;SDS011;29803;51.048;4.686;2023-03-31T16:22:38;6.15;;;1.40;;
44139;SDS011;29803;51.048;4.686;2023-03-31T16:27:45;9.75;;;2.47;;
44139;SDS011;29803;51.048;4.686;2023-03-31T16:30:22;7.97;;;2.35;;
44139;SDS011;29803;51.048;4.686;2023-03-31T16:33:05;7.15;;;2.17;;
44139;SDS011;29803;51.048;4.686;2023-03-31T16:35:38;9.25;;;1.52;;
44139;SDS011;29803;51.048;4.686;2023-03-31T16:38:11;5.43;;;1.08;;
44139;SDS011;29803;51.048;4.686;2023-03-31T16:40:46;20.52;;;9.75;;
44139;SDS011;29803;51.048;4.686;2023-03-31T16:43:19;8.68;;;1.13;;
44139;SDS011;29803;51.048;4.686;2023-03-31T16:45:56;5.47;;;1.33;;
44139;SDS011;29803;51.048;4.686;2023-03-31T16:48:31;12.77;;;4.38;;
44139;SDS011;29803;51.048;4.686;2023-03-31T16:51:04;11.70;;;2.08;;
44139;SDS011;29803;51.048;4.686;2023-03-31T16:53:36;9.40;;;1.52;;
44139;SDS011;29803;51.048;4.686;2023-03-31T16:56:07;7.75;;;1.60;;
44139;SDS011;29803;51.048;4.686;2023-03-31T16:58:39;9.15;;;1.92;;
44139;SDS011;29803;51.048;4.686;2023-03-31T17:01:11;18.10;;;2.67;;
44139;SDS011;29803;51.048;4.686;2023-03-31T17:03:41;13.98;;;2.20;;
44139;SDS011;29803;51.048;4.686;2023-03-31T17:06:12;14.95;;;2.42;;
44139;SDS011;29803;51.048;4.686;2023-03-31T17:08:43;15.73;;;2.30;;
44139;SDS011;29803;51.048;4.686;2023-03-31T17:11:13;24.80;;;2.47;;
44139;SDS011;29803;51.048;4.686;2023-03-31T17:13:44;19.55;;;3.00;;
44139;SDS011;29803;51.048;4.686;2023-03-31T17:16:15;18.52;;;2.53;;
44139;SDS011;29803;51.048;4.686;2023-03-31T17:18:47;17.67;;;2.22;;
44139;SDS011;29803;51.048;4.686;2023-03-31T17:21:18;15.65;;;3.63;;
44139;SDS011;29803;51.048;4.686;2023-03-31T17:23:49;16.67;;;2.70;;
44139;SDS011;29803;51.048;4.686;2023-03-31T17:26:20;20.27;;;2.85;;
44139;SDS011;29803;51.048;4.686;2023-03-31T17:28:52;12.95;;;2.92;;
44139;SDS011;29803;51.048;4.686;2023-03-31T17:31:24;16.50;;;2.53;;
44139;SDS011;29803;51.048;4.686;2023-03-31T17:33:56;12.63;;;2.40;;
44139;SDS011;29803;51.048;4.686;2023-03-31T17:36:27;11.30;;;2.58;;
44139;SDS011;29803;51.048;4.686;2023-03-31T17:38:58;10.18;;;1.73;;
44139;SDS011;29803;51.048;4.686;2023-03-31T17:41:29;8.90;;;2.20;;
44139;SDS011;29803;51.048;4.686;2023-03-31T17:44:00;15.05;;;2.58;;
44139;SDS011;29803;51.048;4.686;2023-03-31T17:46:32;9.50;;;2.60;;
44139;SDS011;29803;51.048;4.686;2023-03-31T17:49:03;13.40;;;2.97;;
44139;SDS011;29803;51.048;4.686;2023-03-31T17:51:33;9.05;;;2.65;;
44139;SDS011;29803;51.048;4.686;2023-03-31T17:54:05;12.73;;;3.55;;
44139;SDS011;29803;51.048;4.686;2023-03-31T17:56:36;9.80;;;2.42;;
44139;SDS011;29803;51.048;4.686;2023-03-31T17:59:07;18.65;;;4.00;;
44139;SDS011;29803;51.048;4.686;2023-03-31T18:01:39;10.88;;;2.00;;
44139;SDS011;29803;51.048;4.686;2023-03-31T18:04:10;11.20;;;2.05;;
44139;SDS011;29803;51.048;4.686;2023-03-31T18:06:41;11.60;;;2.10;;
44139;SDS011;29803;51.048;4.686;2023-03-31T18:09:14;12.30;;;2.20;;
44139;SDS011;29803;51.048;4.686;2023-03-31T18:11:44;14.00;;;2.17;;
44139;SDS011;29803;51.048;4.686;2023-03-31T18:14:16;11.75;;;2.25;;
44139;SDS011;29803;51.048;4.686;2023-03-31T18:16:47;11.93;;;2.75;;
44139;SDS011;29803;51.048;4.686;2023-03-31T18:19:17;10.77;;;2.30;;
44139;SDS011;29803;51.048;4.686;2023-03-31T18:21:48;20.63;;;3.00;;
44139;SDS011;29803;51.048;4.686;2023-03-31T18:24:19;8.70;;;2.97;;
44139;SDS011;29803;51.048;4.686;2023-03-31T18:26:50;14.57;;;2.92;;
44139;SDS011;29803;51.048;4.686;2023-03-31T18:29:20;18.95;;;3.05;;
44139;SDS011;29803;51.048;4.686;2023-03-31T18:31:51;14.45;;;3.03;;
44139;SDS011;29803;51.048;4.686;2023-03-31T18:34:22;9.70;;;2.92;;
44139;SDS011;29803;51.048;4.686;2023-03-31T18:36:53;19.67;;;3.60;;
44139;SDS011;29803;51.048;4.686;2023-03-31T18:39:23;18.42;;;3.83;;
44139;SDS011;29803;51.048;4.686;2023-03-31T18:41:54;25.75;;;3.85;;
44139;SDS011;29803;51.048;4.686;2023-03-31T18:44:25;20.45;;;3.58;;
44139;SDS011;29803;51.048;4.686;2023-03-31T18:46:55;19.60;;;3.53;;
44139;SDS011;29803;51.048;4.686;2023-03-31T18:49:26;24.65;;;3.20;;
44139;SDS011;29803;51.048;4.686;2023-03-31T18:51:57;19.05;;;3.05;;
44139;SDS011;29803;51.048;4.686;2023-03-31T18:54:28;15.65;;;3.33;;
44139;SDS011;29803;51.048;4.686;2023-03-31T18:56:58;16.50;;;3.20;;
44139;SDS011;29803;51.048;4.686;2023-03-31T18:59:30;16.20;;;3.58;;
44139;SDS011;29803;51.048;4.686;2023-03-31T19:02:01;14.32;;;3.08;;
44139;SDS011;29803;51.048;4.686;2023-03-31T19:04:32;15.15;;;3.03;;
44139;SDS011;29803;51.048;4.686;2023-03-31T19:07:02;19.20;;;3.28;;
44139;SDS011;29803;51.048;4.686;2023-03-31T19:09:33;23.98;;;3.63;;
44139;SDS011;29803;51.048;4.686;2023-03-31T19:12:03;22.45;;;4.03;;
44139;SDS011;29803;51.048;4.686;2023-03-31T19:14:34;24.80;;;3.58;;
44139;SDS011;29803;51.048;4.686;2023-03-31T19:17:05;23.92;;;3.65;;
44139;SDS011;29803;51.048;4.686;2023-03-31T19:19:36;31.50;;;4.63;;
44139;SDS011;29803;51.048;4.686;2023-03-31T19:22:07;21.83;;;3.40;;